Skip Navigation LinksHome page > Tools > METAR decoder Skip Navigation Links

METAR decoder

Settings

METAR

Chicago O'Hare Intl, Chicago

For information only: do not use for flight planning or navigation.
Latest weather
Observation time Monday, February 8, 2016 6:02 AM CST
Local time Monday, February 8, 2016 6:12 AM CST
Flight conditions Marginal Visual Meteorological Conditions
Winds
Wind direction West-Southwest (250°)
Wind speed 8 mph
Visibility 10 mi.
Present weather light snow
Sky condition
Ceiling 1,000 ft. overcast
Cloud layer scattered clouds 700 ft.
Cloud layer overcast 1,000 ft.
Temperature 32°F
Dewpoint 29°F
Altimeter 29.61 in.Hg
Precipitation
Precipitation last hour trace
Derived measurements
Relative humidity 88%
Wind chill 25°F
Density altitude -721 ft.
Remarks
Automated weather observing station with precipitation discriminator.
METAR KORD 081202Z 25007KT 10SM -SN SCT007 OVC010 00/M02 A2961 RMK AO2 P0000 T00001017

InnerDrive.Weather 4.0.5722.1 Release CLR 4.0.30319.34209
Copyright ©2015 Inner Drive Technology. All rights reserved. Portions Copyright ©1986-2015 David Braverman.

Find weather

Site navigation


Skip Navigation Links

Place info

Page info

PayPal - The safer, easier way to pay online!

Return home.

Copyright ©2016 Inner Drive Technology. Purveyors of fine, hand-crafted computer software. Page printed 2016-02-08T12:12:56 UTC.